Time;durP1;ratioP1;P1;durP2;ratioP2;P2;SDS_P1;SDS_P2;PMS_P1;PMS_P2;Temp;Humidity;BMP_temperature;BMP_pressure;BME280_temperature;BME280_humidity;BME280_pressure;Samples;Min_cycle;Max_cycle;Signal;HPM_P1;HPM_P2
2023/01/27 00:00:32;;;;;;;11.05;8.52;;;;;;;-1.21;100.00;92212.78;5069652;28;20048;-71
2023/01/27 00:02:59;;;;;;;12.82;9.23;;;;;;;-1.28;100.00;92205.09;5068723;28;20459;-71
2023/01/27 00:05:25;;;;;;;14.85;9.95;;;;;;;-1.22;100.00;92203.66;5069514;28;20045;-71
2023/01/27 00:07:57;;;;;;;14.88;9.75;;;;;;;-1.18;100.00;92204.91;5069049;28;20421;-71
2023/01/27 00:10:24;;;;;;;14.68;10.60;;;;;;;-1.11;100.00;92202.53;5069268;28;20053;-71
2023/01/27 00:15:50;;;;;;;14.55;11.05;;;;;;;-1.00;100.00;92204.69;5026304;28;20095;-71
2023/01/27 00:18:16;;;;;;;20.35;13.27;;;;;;;-0.84;100.00;92203.00;5026652;28;20084;-71
2023/01/27 00:26:15;;;;;;;14.85;11.25;;;;;;;-0.62;100.00;92173.75;5068943;28;20106;-70
2023/01/27 00:28:43;;;;;;;12.02;8.25;;;;;;;-0.64;100.00;92175.66;5069032;28;20341;-70
2023/01/27 00:34:00;;;;;;;12.40;7.30;;;;;;;-0.52;100.00;92172.75;5069024;28;20518;-70
2023/01/27 00:36:27;;;;;;;10.05;7.63;;;;;;;-0.55;100.00;92177.16;5055823;28;20103;-71
2023/01/27 00:38:56;;;;;;;14.13;8.80;;;;;;;-0.43;100.00;92187.66;5068721;28;20102;-70
2023/01/27 00:41:23;;;;;;;14.88;8.25;;;;;;;-0.36;100.00;92189.50;5068670;28;20406;-70
2023/01/27 00:43:52;;;;;;;14.57;9.15;;;;;;;-0.34;100.00;92190.13;5068994;28;20049;-70
2023/01/27 00:46:21;;;;;;;16.23;9.77;;;;;;;-0.33;100.00;92196.75;5068304;28;20086;-70
2023/01/27 00:48:48;;;;;;;12.77;8.40;;;;;;;-0.36;100.00;92184.47;5069095;28;20086;-70
2023/01/27 00:51:15;;;;;;;13.30;8.27;;;;;;;-0.35;100.00;92180.97;5068594;28;20126;-70
2023/01/27 00:53:42;;;;;;;12.30;8.73;;;;;;;-0.33;100.00;92182.38;5068746;28;20048;-70
2023/01/27 00:56:10;;;;;;;10.15;7.20;;;;;;;-0.38;100.00;92181.34;5068751;28;20463;-70
2023/01/27 00:58:37;;;;;;;10.65;7.90;;;;;;;-0.30;100.00;92174.50;5068740;28;20102;-70
2023/01/27 01:01:06;;;;;;;11.70;7.70;;;;;;;-0.31;100.00;92183.03;5068763;28;20101;-70
2023/01/27 01:03:34;;;;;;;16.17;10.38;;;;;;;-0.24;100.00;92195.72;5069050;28;20049;-70
2023/01/27 01:06:02;;;;;;;16.15;8.32;;;;;;;-0.25;100.00;92194.16;5068139;28;20534;-71
2023/01/27 01:08:30;;;;;;;17.88;9.68;;;;;;;-0.33;100.00;92194.22;5068569;28;20493;-70
2023/01/27 01:10:57;;;;;;;13.95;9.18;;;;;;;-0.30;100.00;92193.88;5068548;28;20961;-70
2023/01/27 01:13:26;;;;;;;12.27;8.65;;;;;;;-0.30;100.00;92196.41;5068714;28;20044;-70
2023/01/27 01:15:53;;;;;;;9.48;7.32;;;;;;;-0.33;100.00;92194.22;5054908;28;20423;-70
2023/01/27 01:18:20;;;;;;;10.52;7.72;;;;;;;-0.50;100.00;92189.28;5068512;28;20098;-70
2023/01/27 01:20:47;;;;;;;10.68;7.57;;;;;;;-0.47;100.00;92185.66;5064652;28;20527;-70
2023/01/27 01:23:15;;;;;;;10.75;6.95;;;;;;;-0.47;100.00;92193.22;5066761;28;20113;-70
2023/01/27 01:25:42;;;;;;;9.93;6.82;;;;;;;-0.40;100.00;92194.09;5069878;28;20118;-70
2023/01/27 01:28:10;;;;;;;12.93;8.57;;;;;;;-0.39;100.00;92213.34;5072038;28;20094;-70
2023/01/27 01:30:38;;;;;;;14.85;8.23;;;;;;;-0.35;100.00;92211.25;5071998;28;20094;-70
2023/01/27 01:33:05;;;;;;;15.45;8.77;;;;;;;-0.29;100.00;92208.06;5072342;28;20110;-70
2023/01/27 01:35:32;;;;;;;14.93;8.93;;;;;;;-0.25;100.00;92209.31;5045699;28;20574;-70
2023/01/27 01:37:59;;;;;;;14.05;8.55;;;;;;;-0.25;100.00;92216.88;5071509;28;20053;-70
2023/01/27 01:40:25;;;;;;;11.90;8.25;;;;;;;-0.46;100.00;92212.44;5072266;28;20126;-70
2023/01/27 01:42:56;;;;;;;10.57;7.70;;;;;;;-0.89;100.00;92211.06;5071921;28;20131;-70
2023/01/27 01:45:48;;;;;;;8.55;6.22;;;;;;;-0.92;100.00;92206.38;5072039;28;20087;-70
2023/01/27 01:48:21;;;;;;;8.32;6.78;;;;;;;-1.39;100.00;92160.88;5071428;28;20048;-70
2023/01/27 01:50:52;;;;;;;9.23;6.93;;;;;;;-1.09;100.00;92183.75;5071868;28;20405;-70
2023/01/27 01:53:21;;;;;;;14.02;9.65;;;;;;;-1.45;100.00;92178.38;5071143;28;20110;-69
2023/01/27 01:55:49;;;;;;;10.88;7.72;;;;;;;-1.58;100.00;92174.63;5071710;28;20049;-69
2023/01/27 01:58:16;;;;;;;11.18;8.35;;;;;;;-1.52;100.00;92176.50;5071651;28;20516;-69
2023/01/27 02:00:44;;;;;;;14.48;9.15;;;;;;;-1.37;100.00;92168.28;5071236;28;20040;-69
2023/01/27 02:03:11;;;;;;;13.60;9.70;;;;;;;-1.18;100.00;92162.06;5071833;28;20041;-70
2023/01/27 02:05:42;;;;;;;14.73;10.77;;;;;;;-1.14;100.00;92148.19;5071417;28;20056;-69
2023/01/27 02:08:14;;;;;;;12.65;9.50;;;;;;;-1.02;100.00;92146.06;5071638;28;20398;-69
2023/01/27 02:10:41;;;;;;;10.85;8.10;;;;;;;-0.83;100.00;92152.44;5071480;28;20056;-70
2023/01/27 02:13:07;;;;;;;11.45;8.10;;;;;;;-0.77;100.00;92148.47;5071622;28;20158;-70
2023/01/27 02:15:34;;;;;;;11.35;7.95;;;;;;;-0.67;100.00;92143.19;5071717;28;20459;-71
2023/01/27 02:18:03;;;;;;;10.65;7.75;;;;;;;-0.61;100.00;92132.44;5071184;28;20109;-71
2023/01/27 02:20:37;;;;;;;12.68;8.13;;;;;;;-0.66;100.00;92131.38;5071017;28;20044;-71
2023/01/27 02:23:12;;;;;;;11.90;8.20;;;;;;;-0.62;100.00;92130.06;5071215;28;20105;-70
2023/01/27 02:25:47;;;;;;;9.50;7.43;;;;;;;-0.56;100.00;92130.19;5070898;28;20044;-70
2023/01/27 02:28:14;;;;;;;12.88;8.73;;;;;;;-0.54;100.00;92125.75;5071226;28;20091;-70
2023/01/27 02:30:41;;;;;;;13.05;9.02;;;;;;;-0.42;100.00;92133.72;5070940;28;20500;-70
2023/01/27 02:33:11;;;;;;;14.68;8.77;;;;;;;-0.37;100.00;92137.47;5071256;28;20044;-70
2023/01/27 02:35:43;;;;;;;15.52;9.50;;;;;;;-0.39;100.00;92129.28;5045273;28;20044;-70
2023/01/27 02:38:11;;;;;;;14.55;8.88;;;;;;;-0.42;100.00;92136.25;5070288;28;20149;-69
2023/01/27 02:40:40;;;;;;;14.15;8.93;;;;;;;-0.46;100.00;92121.63;5071156;28;20049;-70
2023/01/27 02:43:08;;;;;;;13.50;8.40;;;;;;;-0.47;100.00;92125.09;5070564;28;20542;-70
2023/01/27 02:45:35;;;;;;;12.43;8.13;;;;;;;-0.45;100.00;92135.81;5070928;28;20040;-70
2023/01/27 02:48:01;;;;;;;12.57;7.68;;;;;;;-0.50;100.00;92120.38;5070816;28;20439;-69
2023/01/27 02:50:28;;;;;;;13.45;8.85;;;;;;;-0.44;100.00;92135.63;5070978;28;20094;-69
2023/01/27 02:52:55;;;;;;;10.82;7.75;;;;;;;-0.44;100.00;92132.31;5070611;28;20040;-69
2023/01/27 02:55:22;;;;;;;12.70;7.82;;;;;;;-0.45;100.00;92135.81;5070823;28;20044;-70
2023/01/27 02:57:48;;;;;;;12.25;8.38;;;;;;;-0.43;100.00;92131.34;5057430;28;20049;-71
2023/01/27 03:00:17;;;;;;;13.43;8.70;;;;;;;-0.43;100.00;92132.16;5050502;28;20095;-72
2023/01/27 03:02:44;;;;;;;13.00;9.00;;;;;;;-0.50;100.00;92117.88;5056885;28;20459;-72
2023/01/27 03:05:11;;;;;;;12.60;8.55;;;;;;;-0.38;100.00;92130.88;5072955;28;20052;-71
2023/01/27 03:07:37;;;;;;;12.75;9.35;;;;;;;-0.35;100.00;92135.56;5072904;28;20044;-71
2023/01/27 03:10:04;;;;;;;13.10;8.57;;;;;;;-0.32;100.00;92138.53;5073456;28;20094;-71
2023/01/27 03:12:31;;;;;;;14.23;8.88;;;;;;;-0.27;100.00;92138.81;5073027;28;20094;-71
2023/01/27 03:20:27;;;;;;;;;;;;;;;-0.24;100.00;92119.25;5073190;28;20082;-69
2023/01/27 03:22:54;;;;;;;22.58;15.20;;;;;;;-0.31;100.00;92117.41;5072903;28;19989;-69
2023/01/27 03:25:21;;;;;;;26.08;16.02;;;;;;;-0.32;100.00;92103.19;5072627;28;20048;-69
2023/01/27 03:27:48;;;;;;;18.38;12.80;;;;;;;-0.31;100.00;92099.75;5072583;28;20488;-69
2023/01/27 03:30:14;;;;;;;17.00;11.93;;;;;;;-0.41;100.00;92079.78;5072907;28;20044;-69
2023/01/27 03:32:53;;;;;;;15.70;11.88;;;;;;;-0.31;100.00;92102.28;5072706;28;20053;-69
2023/01/27 03:35:21;;;;;;;21.42;14.48;;;;;;;-0.76;100.00;92099.59;5072620;28;20097;-69
2023/01/27 03:46:17;;;;;;;38.33;16.67;;;;;;;-1.45;100.00;92065.03;5072423;28;20075;-72
2023/01/27 03:48:50;;;;;;;110.43;57.97;;;;;;;-1.37;100.00;92064.97;5072114;28;20452;-72
2023/01/27 03:51:18;;;;;;;20.38;13.85;;;;;;;-1.27;100.00;92060.53;5072102;28;20049;-72
2023/01/27 03:53:45;;;;;;;17.65;11.52;;;;;;;-1.29;100.00;92064.94;5072078;28;20068;-72
2023/01/27 03:56:12;;;;;;;14.95;10.38;;;;;;;-1.23;100.00;92051.69;5071972;28;20497;-72
2023/01/27 03:58:39;;;;;;;13.63;9.43;;;;;;;-1.09;100.00;92054.44;5072333;28;20053;-71
2023/01/27 04:01:07;;;;;;;13.13;9.65;;;;;;;-1.04;100.00;92057.25;5071882;28;20551;-72
2023/01/27 04:09:09;;;;;;;16.13;10.98;;;;;;;-0.78;100.00;92062.91;5069082;28;20055;-72
2023/01/27 04:14:21;;;;;;;14.35;10.23;;;;;;;-0.56;100.00;92082.28;5068682;28;20055;-71
2023/01/27 04:16:48;;;;;;;12.82;9.32;;;;;;;-0.59;100.00;92081.81;5068898;28;20044;-71
2023/01/27 04:19:15;;;;;;;15.00;9.00;;;;;;;-0.50;100.00;92090.13;5069131;28;20459;-71
2023/01/27 04:21:43;;;;;;;19.08;12.07;;;;;;;-0.47;100.00;92104.91;5069296;28;20049;-71
2023/01/27 04:24:21;;;;;;;20.80;12.50;;;;;;;-0.43;100.00;92127.09;5069027;28;20051;-71
2023/01/27 04:26:48;;;;;;;18.00;11.73;;;;;;;-0.38;100.00;92134.16;5069027;28;20048;-72
2023/01/27 04:29:15;;;;;;;20.00;13.40;;;;;;;-0.36;100.00;92137.31;5069328;28;20040;-71
2023/01/27 04:31:42;;;;;;;20.67;13.25;;;;;;;-0.33;100.00;92148.81;5068471;28;20052;-71
2023/01/27 04:34:11;;;;;;;24.08;15.20;;;;;;;-0.38;100.00;92139.22;5068956;28;20049;-71
2023/01/27 04:36:37;;;;;;;21.83;14.55;;;;;;;-0.28;100.00;92159.94;5068626;28;20791;-71
2023/01/27 04:39:06;;;;;;;19.15;13.63;;;;;;;-0.25;100.00;92165.59;5068963;28;20040;-72
2023/01/27 04:41:33;;;;;;;21.23;14.10;;;;;;;-0.22;100.00;92171.13;5069057;28;20052;-72
2023/01/27 04:44:00;;;;;;;17.42;13.38;;;;;;;-0.19;100.00;92175.81;5069052;28;20049;-70
2023/01/27 04:46:26;;;;;;;19.25;13.27;;;;;;;-0.16;100.00;92184.78;5068758;28;20040;-69
2023/01/27 04:48:53;;;;;;;20.33;13.55;;;;;;;-0.12;100.00;92177.66;5068873;28;20049;-69
2023/01/27 04:51:20;;;;;;;18.67;13.02;;;;;;;-0.11;100.00;92171.66;5040464;28;20094;-69
2023/01/27 04:53:47;;;;;;;18.17;13.80;;;;;;;-0.12;100.00;92162.50;5058901;28;20044;-70
2023/01/27 04:56:27;;;;;;;17.23;12.82;;;;;;;-0.15;100.00;92166.16;5068836;28;20062;-70
2023/01/27 04:58:54;;;;;;;19.50;13.82;;;;;;;-0.15;100.00;92145.97;5068605;28;20052;-70
2023/01/27 05:01:21;;;;;;;20.90;15.18;;;;;;;-0.15;100.00;92144.25;5071748;28;20094;-70
2023/01/27 05:03:48;;;;;;;21.75;15.55;;;;;;;-0.15;100.00;92138.41;5072979;28;20451;-69
2023/01/27 05:06:15;;;;;;;32.53;22.95;;;;;;;-0.17;100.00;92128.50;5072242;28;20037;-68
2023/01/27 05:08:42;;;;;;;22.60;16.13;;;;;;;-0.41;100.00;92126.94;5072652;28;20052;-69
2023/01/27 05:11:09;;;;;;;45.40;24.80;;;;;;;-0.49;100.00;92135.34;5072768;28;20106;-69
2023/01/27 05:13:39;;;;;;;38.28;22.58;;;;;;;-0.57;100.00;92160.63;5072451;28;20040;-69
2023/01/27 05:16:08;;;;;;;33.60;22.20;;;;;;;-0.70;100.00;92171.25;5072326;28;20052;-69
2023/01/27 05:18:34;;;;;;;32.03;20.90;;;;;;;-0.85;100.00;92144.25;5072223;28;20102;-70
2023/01/27 05:21:02;;;;;;;34.13;20.00;;;;;;;-0.70;100.00;92139.28;5072216;28;20087;-69
2023/01/27 05:23:36;;;;;;;24.10;16.55;;;;;;;-0.68;100.00;92149.19;5071976;28;20045;-70
2023/01/27 05:26:05;;;;;;;22.75;15.50;;;;;;;-0.82;100.00;92131.28;5072136;28;20044;-70
2023/01/27 05:28:32;;;;;;;22.52;16.05;;;;;;;-0.56;100.00;92155.41;5071859;28;20045;-69
2023/01/27 05:31:06;;;;;;;25.55;17.00;;;;;;;-0.48;100.00;92151.25;5072092;28;20094;-69
2023/01/27 05:33:33;;;;;;;25.48;16.65;;;;;;;-0.40;100.00;92151.22;5071637;28;20052;-69
2023/01/27 05:36:01;;;;;;;22.23;14.95;;;;;;;-0.32;100.00;92135.25;5072108;28;20098;-69
2023/01/27 05:38:29;;;;;;;23.77;15.63;;;;;;;-0.27;100.00;92135.50;5071845;28;20049;-69
2023/01/27 05:40:57;;;;;;;21.35;14.98;;;;;;;-0.24;100.00;92140.22;5072165;28;20048;-69
2023/01/27 05:43:24;;;;;;;21.08;15.05;;;;;;;-0.19;100.00;92135.44;5071858;28;20044;-69
2023/01/27 05:45:51;;;;;;;21.38;15.20;;;;;;;-0.18;100.00;92121.84;5071971;28;20052;-69
2023/01/27 05:48:19;;;;;;;22.75;15.65;;;;;;;-0.19;100.00;92117.75;5071660;28;20048;-69
2023/01/27 05:50:55;;;;;;;25.38;16.00;;;;;;;-0.19;100.00;92114.47;5071863;28;20091;-70
2023/01/27 05:53:22;;;;;;;28.60;18.48;;;;;;;-0.16;100.00;92135.09;5071374;28;20076;-69
2023/01/27 05:55:49;;;;;;;20.52;14.90;;;;;;;-0.12;100.00;92144.84;5071658;28;20048;-69
2023/01/27 05:58:16;;;;;;;21.23;15.35;;;;;;;-0.08;100.00;92151.91;5071819;28;20444;-69
2023/01/27 06:00:43;;;;;;;21.85;14.77;;;;;;;-0.06;100.00;92152.53;5058643;28;20053;-69
2023/01/27 06:03:09;;;;;;;24.55;15.38;;;;;;;-0.03;100.00;92144.63;5071732;28;20045;-69
2023/01/27 06:05:38;;;;;;;39.53;26.35;;;;;;;-0.06;100.00;92141.63;5071236;28;20082;-70
2023/01/27 06:08:04;;;;;;;29.08;19.17;;;;;;;0.00;100.00;92156.13;5071710;28;20436;-70
2023/01/27 06:10:31;;;;;;;26.17;18.63;;;;;;;0.04;100.00;92159.84;5071256;28;20048;-70
2023/01/27 06:12:59;;;;;;;22.10;16.45;;;;;;;0.03;100.00;92153.25;5071502;28;20086;-70
2023/01/27 06:15:26;;;;;;;20.30;14.93;;;;;;;0.02;100.00;92160.97;5071176;28;20055;-70
2023/01/27 06:17:52;;;;;;;19.92;13.85;;;;;;;0.06;100.00;92157.16;5071214;28;20102;-70
2023/01/27 06:20:19;;;;;;;17.95;13.50;;;;;;;0.02;100.00;92166.03;5070974;28;20390;-70
2023/01/27 06:22:49;;;;;;;22.08;13.88;;;;;;;0.01;100.00;92161.94;5071402;28;20041;-70
2023/01/27 06:25:16;;;;;;;19.85;14.52;;;;;;;-0.08;100.00;92159.50;5071088;28;20527;-69
2023/01/27 06:27:43;;;;;;;21.42;13.65;;;;;;;-0.28;100.00;92167.53;5071292;28;20044;-69
2023/01/27 06:30:10;;;;;;;19.27;13.25;;;;;;;-0.22;100.00;92142.56;5070849;28;20087;-69
2023/01/27 06:32:37;;;;;;;20.75;14.00;;;;;;;-0.13;100.00;92159.22;5070952;28;20500;-69
2023/01/27 06:35:04;;;;;;;19.58;13.70;;;;;;;-0.15;100.00;92156.84;5068738;28;20135;-70
2023/01/27 06:37:31;;;;;;;18.73;13.05;;;;;;;-0.13;100.00;92151.66;5069467;28;20094;-70
2023/01/27 06:39:59;;;;;;;16.17;12.25;;;;;;;-0.15;100.00;92164.44;5069645;28;20465;-69
2023/01/27 06:42:26;;;;;;;16.33;12.15;;;;;;;-0.10;100.00;92163.16;5071070;28;20122;-69
2023/01/27 06:44:53;;;;;;;16.08;11.98;;;;;;;-0.09;100.00;92167.22;5070625;28;20044;-69
2023/01/27 06:47:20;;;;;;;16.85;11.35;;;;;;;0.03;100.00;92173.44;5070930;28;20056;-69
2023/01/27 06:49:46;;;;;;;15.65;11.70;;;;;;;0.08;100.00;92170.38;5070754;28;20048;-69
2023/01/27 06:52:13;;;;;;;18.50;13.13;;;;;;;0.13;100.00;92171.47;5070749;28;20566;-70
2023/01/27 06:54:40;;;;;;;14.65;11.65;;;;;;;0.28;100.00;92187.59;5070542;28;20098;-69
2023/01/27 06:57:10;;;;;;;16.15;11.07;;;;;;;0.35;100.00;92183.41;5070768;28;20056;-69
2023/01/27 06:59:37;;;;;;;13.73;10.13;;;;;;;0.24;100.00;92179.56;5070098;28;20393;-70
2023/01/27 07:02:04;;;;;;;16.15;10.70;;;;;;;0.23;100.00;92178.78;5070699;28;20097;-70
2023/01/27 07:04:30;;;;;;;16.55;11.25;;;;;;;0.32;100.00;92171.91;5070280;28;20041;-70
2023/01/27 07:06:57;;;;;;;14.80;10.68;;;;;;;0.14;100.00;92136.91;5070373;28;20874;-70
2023/01/27 07:09:24;;;;;;;16.08;11.50;;;;;;;0.04;100.00;92164.91;5070177;28;20041;-70
2023/01/27 07:11:50;;;;;;;24.02;15.85;;;;;;;0.03;100.00;92160.00;5070199;28;20539;-70
2023/01/27 07:14:18;;;;;;;15.63;11.05;;;;;;;-0.26;100.00;92149.69;5069978;28;20040;-70
2023/01/27 07:16:45;;;;;;;15.52;9.80;;;;;;;-0.44;100.00;92155.03;5070373;28;20049;-70
2023/01/27 07:19:13;;;;;;;13.75;10.23;;;;;;;-0.36;100.00;92159.22;5070161;28;20045;-70
2023/01/27 07:21:39;;;;;;;13.75;11.00;;;;;;;-0.20;100.00;92164.16;5069871;28;20134;-70
2023/01/27 07:24:06;;;;;;;19.10;11.75;;;;;;;-0.06;100.00;92167.69;5069549;28;20041;-70
2023/01/27 07:26:33;;;;;;;15.90;11.63;;;;;;;0.02;100.00;92168.56;5070000;28;20048;-71
2023/01/27 07:29:00;;;;;;;16.77;10.73;;;;;;;0.08;100.00;92170.38;5069596;28;20097;-71
2023/01/27 07:31:28;;;;;;;16.30;10.43;;;;;;;0.12;100.00;92166.56;5069776;28;20558;-71
2023/01/27 07:33:55;;;;;;;16.75;10.98;;;;;;;0.07;100.00;92156.19;5069261;28;20504;-70
2023/01/27 07:36:21;;;;;;;14.25;9.80;;;;;;;0.07;100.00;92169.63;5069768;28;20475;-71
2023/01/27 07:38:49;;;;;;;21.30;14.90;;;;;;;0.00;100.00;92176.31;5069507;28;20090;-70
2023/01/27 07:41:16;;;;;;;17.42;12.45;;;;;;;-0.03;100.00;92181.69;5069487;28;20044;-71
2023/01/27 07:43:43;;;;;;;21.42;13.15;;;;;;;0.16;100.00;92172.84;5069906;28;20056;-70
2023/01/27 07:46:09;;;;;;;20.73;13.15;;;;;;;0.31;100.00;92167.81;5069334;28;20505;-71
2023/01/27 07:48:38;;;;;;;26.98;15.07;;;;;;;0.45;100.00;92170.50;5061956;28;20041;-70
2023/01/27 07:51:04;;;;;;;17.38;12.02;;;;;;;0.52;100.00;92172.19;5064583;28;20102;-71
2023/01/27 07:53:31;;;;;;;18.42;12.55;;;;;;;0.61;100.00;92165.28;5069344;28;20101;-71
2023/01/27 07:55:59;;;;;;;19.27;13.63;;;;;;;0.67;100.00;92171.41;5069035;28;20535;-71
2023/01/27 07:58:26;;;;;;;19.15;14.43;;;;;;;0.76;100.00;92177.94;5069353;28;20098;-70
2023/01/27 08:00:52;;;;;;;20.45;14.45;;;;;;;0.84;100.00;92177.06;5069031;28;20443;-70
2023/01/27 08:03:22;;;;;;;20.63;14.00;;;;;;;0.97;100.00;92181.47;5069436;28;20106;-70
2023/01/27 08:05:51;;;;;;;18.92;13.75;;;;;;;1.02;100.00;92179.22;5069151;28;20094;-70
2023/01/27 08:08:18;;;;;;;17.20;12.60;;;;;;;1.08;100.00;92180.25;5069242;28;20614;-71
2023/01/27 08:10:48;;;;;;;16.10;11.07;;;;;;;1.11;100.00;92179.13;5069120;28;20135;-71
2023/01/27 08:13:15;;;;;;;24.17;13.98;;;;;;;1.15;100.00;92182.88;5069260;28;20048;-71
2023/01/27 08:15:41;;;;;;;15.05;9.93;;;;;;;1.09;100.00;92175.97;5068925;28;20098;-71
2023/01/27 08:18:09;;;;;;;16.35;11.07;;;;;;;1.03;100.00;92175.72;5068760;28;20044;-71
2023/01/27 08:20:36;;;;;;;16.10;10.63;;;;;;;1.11;100.00;92179.91;5069157;28;20048;-71
2023/01/27 08:23:04;;;;;;;15.73;9.65;;;;;;;1.17;100.00;92188.53;5068648;28;20493;-71
2023/01/27 08:25:30;;;;;;;10.30;8.05;;;;;;;1.12;100.00;92173.91;5068849;28;20082;-71
2023/01/27 08:27:57;;;;;;;14.23;10.52;;;;;;;1.06;100.00;92169.53;5068687;28;20566;-71
2023/01/27 08:30:25;;;;;;;12.90;8.77;;;;;;;0.97;100.00;92168.06;5068703;28;20098;-71
2023/01/27 08:32:52;;;;;;;12.35;8.63;;;;;;;0.98;100.00;92174.69;5068815;28;20060;-71
2023/01/27 08:35:19;;;;;;;15.32;9.60;;;;;;;1.09;100.00;92173.44;5068952;28;20135;-70
2023/01/27 08:37:46;;;;;;;11.18;8.10;;;;;;;1.01;100.00;92179.38;5068969;28;20501;-70
2023/01/27 08:40:15;;;;;;;16.40;9.88;;;;;;;1.01;100.00;92169.25;5068982;28;20418;-70
2023/01/27 08:42:42;;;;;;;14.35;10.07;;;;;;;0.75;100.00;92175.59;5068488;28;20044;-70
2023/01/27 08:45:09;;;;;;;13.80;10.00;;;;;;;0.77;100.00;92173.66;5068497;28;20560;-69
2023/01/27 08:47:36;;;;;;;14.38;10.63;;;;;;;0.47;100.00;92168.63;5068851;28;20098;-69
2023/01/27 08:50:02;;;;;;;14.95;10.50;;;;;;;0.60;100.00;92168.78;5068864;28;20093;-69
2023/01/27 08:52:30;;;;;;;14.15;9.30;;;;;;;0.69;100.00;92161.91;5068547;28;20078;-71
2023/01/27 08:54:57;;;;;;;18.52;11.27;;;;;;;0.43;100.00;92170.72;5042305;28;20044;-70
2023/01/27 08:57:25;;;;;;;35.60;16.38;;;;;;;0.15;100.00;92171.28;5068379;28;20451;-70
2023/01/27 08:59:52;;;;;;;28.90;14.93;;;;;;;0.09;100.00;92167.69;5055381;28;20087;-70
2023/01/27 09:02:21;;;;;;;17.75;10.95;;;;;;;-0.14;100.00;92165.19;5068255;28;20117;-70
2023/01/27 09:04:47;;;;;;;32.90;19.75;;;;;;;0.04;100.00;92172.47;5068624;28;20048;-70
2023/01/27 09:07:14;;;;;;;20.10;12.30;;;;;;;-0.45;100.00;92166.88;5068333;28;20045;-70
2023/01/27 09:09:41;;;;;;;15.73;9.70;;;;;;;-0.58;100.00;92161.59;5068682;28;20044;-70
2023/01/27 09:12:08;;;;;;;15.05;9.00;;;;;;;-0.68;100.00;92159.28;5068391;28;20118;-70
2023/01/27 09:14:36;;;;;;;16.38;9.55;;;;;;;-0.90;100.00;92160.81;5068970;28;20044;-70
2023/01/27 09:17:02;;;;;;;10.98;8.02;;;;;;;-0.78;100.00;92159.50;5068468;28;20052;-70
2023/01/27 09:19:29;;;;;;;11.73;6.88;;;;;;;-0.85;100.00;92179.56;5068667;28;20040;-70
2023/01/27 09:21:56;;;;;;;12.30;8.63;;;;;;;-0.93;100.00;92166.97;5068590;28;20044;-70
2023/01/27 09:24:22;;;;;;;20.27;12.25;;;;;;;-1.24;100.00;92133.25;5068155;28;20045;-70
2023/01/27 09:26:49;;;;;;;21.52;12.05;;;;;;;-0.92;100.00;92158.47;5068280;28;20052;-70
2023/01/27 09:29:16;;;;;;;13.02;8.70;;;;;;;-0.91;100.00;92144.91;5068331;28;20554;-70
2023/01/27 09:31:44;;;;;;;12.68;7.70;;;;;;;-0.83;100.00;92139.06;5068647;28;20048;-70
2023/01/27 09:34:11;;;;;;;14.90;9.25;;;;;;;-1.05;100.00;92127.97;5068680;28;20052;-70
2023/01/27 09:36:42;;;;;;;13.88;8.63;;;;;;;-0.91;100.00;92147.44;5068639;28;20056;-70
2023/01/27 09:39:09;;;;;;;14.07;7.50;;;;;;;-0.91;100.00;92142.41;5068606;28;20462;-70
2023/01/27 09:41:55;;;;;;;14.07;7.90;;;;;;;-0.83;100.00;92144.09;5068576;28;20090;-70
2023/01/27 09:45:01;;;;;;;12.10;7.60;;;;;;;-0.91;100.00;92141.59;5068532;28;20425;-70
2023/01/27 09:47:47;;;;;;;15.68;8.57;;;;;;;-0.97;100.00;92145.59;5054316;28;20098;-70
2023/01/27 09:50:28;;;;;;;29.85;13.55;;;;;;;-0.89;100.00;92139.72;5071641;28;20045;-70
2023/01/27 09:53:19;;;;;;;18.33;8.93;;;;;;;-0.98;100.00;92123.81;5071503;28;20088;-70
2023/01/27 09:55:54;;;;;;;10.95;7.82;;;;;;;-0.95;100.00;92109.19;5056171;28;20045;-70
2023/01/27 09:58:34;;;;;;;10.98;6.88;;;;;;;-0.97;100.00;92115.34;5058663;28;20102;-70
2023/01/27 10:01:10;;;;;;;16.90;10.32;;;;;;;-0.90;100.00;92110.41;5071432;28;20053;-71
2023/01/27 10:04:04;;;;;;;14.80;10.48;;;;;;;-0.86;100.00;92109.91;5071456;28;20474;-70
2023/01/27 10:06:45;;;;;;;12.65;7.50;;;;;;;-0.60;100.00;92105.50;5071338;28;20040;-70
2023/01/27 10:09:38;;;;;;;13.65;8.02;;;;;;;-0.65;100.00;92105.97;5071562;28;20044;-70
2023/01/27 10:12:15;;;;;;;27.50;11.35;;;;;;;-0.60;100.00;92105.50;5063267;28;20052;-70
2023/01/27 10:14:51;;;;;;;13.85;9.38;;;;;;;-0.74;100.00;92105.25;5048243;28;20079;-70
2023/01/27 10:17:36;;;;;;;13.57;8.90;;;;;;;-0.84;100.00;92097.13;5071296;28;20440;-70
2023/01/27 10:20:14;;;;;;;16.53;9.10;;;;;;;-1.00;100.00;92101.34;5071680;28;20052;-69
2023/01/27 10:22:53;;;;;;;14.05;7.68;;;;;;;-0.89;100.00;92094.34;5071014;28;20331;-70
2023/01/27 10:25:30;;;;;;;15.63;10.02;;;;;;;-0.83;100.00;92096.19;5071147;28;20133;-70
2023/01/27 10:27:58;;;;;;;17.00;10.95;;;;;;;-0.74;100.00;92074.22;5071019;28;20049;-70
2023/01/27 10:30:32;;;;;;;15.88;11.40;;;;;;;-0.73;100.00;92089.19;5070956;28;20090;-70
2023/01/27 10:33:12;;;;;;;13.00;6.95;;;;;;;-0.71;100.00;92089.78;5070677;28;20063;-70
2023/01/27 10:35:50;;;;;;;10.68;7.28;;;;;;;-0.69;100.00;92069.47;5070964;28;20044;-70
2023/01/27 10:38:25;;;;;;;12.20;7.82;;;;;;;-0.54;100.00;92075.31;5070450;28;20044;-70
2023/01/27 10:40:58;;;;;;;14.70;8.35;;;;;;;-0.43;100.00;92081.69;5070896;28;20048;-70
2023/01/27 10:43:33;;;;;;;11.85;7.93;;;;;;;-0.24;100.00;92072.06;5070988;28;20041;-69
2023/01/27 10:46:10;;;;;;;14.45;9.30;;;;;;;-0.11;100.00;92090.88;5070726;28;20078;-70
2023/01/27 10:48:42;;;;;;;18.23;11.65;;;;;;;0.15;100.00;92089.69;5070766;28;20049;-70
2023/01/27 10:51:13;;;;;;;19.20;10.63;;;;;;;0.18;100.00;92090.13;5069492;28;20044;-70
2023/01/27 10:53:51;;;;;;;15.65;9.25;;;;;;;0.17;100.00;92091.09;5059145;28;20048;-69
2023/01/27 10:56:26;;;;;;;13.63;8.85;;;;;;;0.08;100.00;92087.84;5070254;28;20049;-69
2023/01/27 10:59:01;;;;;;;11.88;8.68;;;;;;;-0.11;100.00;92089.16;5069590;28;20056;-69
2023/01/27 11:01:33;;;;;;;14.75;9.00;;;;;;;0.11;100.00;92094.31;5070574;28;20098;-69
2023/01/27 11:04:06;;;;;;;9.60;7.13;;;;;;;0.09;100.00;92097.00;5070418;28;20052;-69
2023/01/27 11:06:39;;;;;;;10.88;7.28;;;;;;;0.04;100.00;92093.44;5070189;28;20049;-69
2023/01/27 11:09:13;;;;;;;10.93;7.15;;;;;;;-0.23;100.00;92098.88;5070447;28;20044;-69
2023/01/27 11:11:45;;;;;;;13.20;7.78;;;;;;;-0.22;100.00;92090.34;5070601;28;21039;-69
2023/01/27 11:14:21;;;;;;;10.68;7.50;;;;;;;-0.11;100.00;92096.72;5069701;28;20055;-70
2023/01/27 11:16:50;;;;;;;13.80;8.15;;;;;;;-0.29;100.00;92075.13;5070237;28;20501;-69
2023/01/27 11:19:28;;;;;;;11.68;8.43;;;;;;;-0.34;100.00;92089.97;5069573;28;20542;-69
2023/01/27 11:21:57;;;;;;;9.77;7.50;;;;;;;-0.44;100.00;92081.88;5069933;28;20041;-69
2023/01/27 11:24:32;;;;;;;14.85;9.90;;;;;;;-0.60;100.00;92060.84;5070088;28;20053;-69
2023/01/27 11:27:07;;;;;;;15.53;10.73;;;;;;;-0.58;100.00;92074.09;5069543;28;20390;-69
2023/01/27 11:29:40;;;;;;;18.17;12.38;;;;;;;-0.49;100.00;92084.09;5070035;28;20338;-69
2023/01/27 11:32:16;;;;;;;21.75;11.95;;;;;;;-0.69;100.00;92075.25;5069860;28;20055;-69
2023/01/27 11:34:51;;;;;;;16.67;12.27;;;;;;;-0.67;100.00;92075.09;5069560;28;20525;-69
2023/01/27 11:37:21;;;;;;;18.27;12.07;;;;;;;-0.69;100.00;92075.25;5055677;28;20505;-70
2023/01/27 11:39:49;;;;;;;20.23;14.30;;;;;;;-0.58;100.00;92076.63;5048501;28;20508;-69
2023/01/27 11:42:16;;;;;;;21.15;14.57;;;;;;;-0.66;100.00;92058.25;5069816;28;20044;-69
2023/01/27 11:44:45;;;;;;;22.83;15.50;;;;;;;-0.70;100.00;92066.13;5069600;28;20082;-69
2023/01/27 11:47:23;;;;;;;22.67;14.05;;;;;;;-0.71;100.00;92059.53;5069819;28;20048;-69
2023/01/27 11:49:52;;;;;;;14.82;9.48;;;;;;;-0.80;100.00;92055.50;5069814;28;20045;-69
2023/01/27 11:52:25;;;;;;;16.27;10.73;;;;;;;-0.72;100.00;92052.13;5067902;28;20091;-69
2023/01/27 11:54:57;;;;;;;12.60;8.35;;;;;;;-0.65;100.00;92054.75;5058998;28;20048;-70
2023/01/27 11:57:26;;;;;;;14.80;10.05;;;;;;;-0.58;100.00;92061.47;5069111;28;20158;-69